deformed-offering

Nearby METAR Reports

 

KSJC - San Jose, California, USA
Distance from station: NE 9mi, 14km
Updated: Thu, 02-Apr-2020 9:53am PDT
Clear
Clear
 Wind from NW
Wind: NW 12 mph , 19 km/h
Temperature: 55°F , 13°C
Dew Point: 34°F , 1°C
Humidity: 44%
Barometer: 30.10 inHg , 1019.3 hPa
Clouds: Clear
Visibility: 10 miles , 16 km
2020/04/02 16:53 KSJC 021653Z 32010KT 10SM CLR 13/01 A3010 RMK AO2 SLP191 T01280011
KRHV - San Jose/Reid, California, USA
Distance from station: ENE 12mi, 19km
Updated: Thu, 02-Apr-2020 9:47am PDT
Clear
Clear
 Wind from calm
Wind: Calm
Temperature: 50°F , 10°C
Dew Point: 39°F , 4°C
Humidity: 67%
Barometer: 30.10 inHg , 1019.3 hPa
Clouds: Clear
Visibility: 10 miles , 16 km
2020/04/02 16:47 KRHV 021647Z 00000KT 10SM SKC 10/04 A3010
 
KPAO - Palo Alto, California, USA
Distance from station: NNW 14mi, 23km
Updated: Thu, 02-Apr-2020 10:47am PDT
Clear
Clear
 Wind from NNW
Wind: NNW 8 mph , 13 km/h
Temperature: 57°F , 14°C
Dew Point: 34°F , 1°C
Humidity: 41%
Barometer: 30.11 inHg , 1019.6 hPa
Clouds: Clear
Visibility: 10 miles , 16 km
2020/04/02 17:47 KPAO 021747Z 33007KT 10SM SKC 14/01 A3011
KSQL - San Carlos Airpo, California, USA
Distance from station: NW 21mi, 34km
Updated: Thu, 02-Apr-2020 9:48am PDT
Clear
Clear
 Wind from W
Wind: W 6 mph , 9 km/h
Temperature: 55°F , 13°C
Dew Point: 37°F , 3°C
Humidity: 51%
Barometer: 30.12 inHg , 1020 hPa
Clouds: Clear
Visibility: 10 miles , 16 km
2020/04/02 16:48 KSQL 021648Z 26005KT 10SM SKC 13/03 A3012
 
KWVI - Watsonville, California, USA
Distance from station: SSE 27mi, 44km
Updated: Thu, 02-Apr-2020 9:53am PDT
Clear
Clear
 Wind from calm
Wind: Calm
Temperature: 54°F , 12°C
Dew Point: 43°F , 6°C
Humidity: 67%
Barometer: 30.10 inHg , 1019.3 hPa
Clouds: Clear
Visibility: 10 miles , 16 km
2020/04/02 16:53 KWVI 021653Z AUTO 00000KT 10SM CLR 12/06 A3010 RMK AO2 SLP191 T01220056
KHWD - Hayward, California, USA
Distance from station: N 28mi, 44km
Updated: Thu, 02-Apr-2020 9:54am PDT
Clear
Clear
 Wind from calm
Wind: Calm
Temperature: 55°F , 13°C
Dew Point: 36°F , 2°C
Humidity: 47%
Barometer: 30.10 inHg , 1019.3 hPa
Clouds: Clear
Visibility: 10 miles , 16 km
2020/04/02 16:54 KHWD 021654Z 00000KT 10SM CLR 13/02 A3010 RMK AO2 SLP203 T01280022
 
KSFO - San Francisco, California, USA
Distance from station: NW 30mi, 49km
Updated: Thu, 02-Apr-2020 9:56am PDT
Clear
Clear
 Wind from N
Wind: N 10 mph , 17 km/h
Temperature: 55°F , 13°C
Dew Point: 34°F , 1°C
Humidity: 44%
Barometer: 30.11 inHg , 1019.6 hPa
Clouds: Clear
Visibility: 10 miles , 16 km
2020/04/02 16:56 KSFO 021656Z 35009KT 10SM CLR 13/01 A3011 RMK AO2 SLP195 T01330011
KHAF - Half Moon Bay, California, USA
Distance from station: WNW 31mi, 50km
Updated: Thu, 02-Apr-2020 10:35am PDT
Clear
Clear
 Wind from NW
Wind: NW 15 mph , 24 km/h
Temperature: 54°F , 12°C
Dew Point: 43°F , 6°C
Humidity: 67%
Barometer: 30.12 inHg , 1020 hPa
Clouds: Clear
Visibility: 10 miles , 16 km
2020/04/02 17:35 KHAF 021735Z AUTO 32013KT 10SM CLR 12/06 A3012 RMK AO2
 
KLVK - Livermore, California, USA
Distance from station: NNE 31mi, 51km
Updated: Thu, 02-Apr-2020 9:53am PDT
Clear
Clear
 Wind from N
Wind: N 12 mph , 19 km/h, Gust: 16 mph , 26 km/h
Temperature: 55°F , 13°C
Dew Point: 27°F , -3°C
Humidity: 33%
Barometer: 30.09 inHg , 1019 hPa
Clouds: Clear
Visibility: 10 miles , 16 km
2020/04/02 16:53 KLVK 021653Z 35010G14KT 10SM CLR 13/M03 A3009 RMK AO2 SLP187 T01331033
KOAK - Oakland, California, USA
Distance from station: NNW 33mi, 53km
Updated: Thu, 02-Apr-2020 9:53am PDT
Clear
Clear
 Wind from WNW
Wind: WNW 7 mph , 11 km/h
Temperature: 57°F , 14°C
Dew Point: 36°F , 2°C
Humidity: 44%
Barometer: 30.11 inHg , 1019.6 hPa
Clouds: Clear
Visibility: 10 miles , 16 km
2020/04/02 16:53 KOAK 021653Z 30006KT 10SM CLR 14/02 A3011 RMK AO2 SLP195 T01390017
 
KCVH - Hollister Muni, California, USA
Distance from station: SE 42mi, 68km
Updated: Thu, 02-Apr-2020 10:40am PDT
Clear
Clear
 Wind from NNW
Wind: NNW 8 mph , 13 km/h
Temperature: 54°F , 12°C
Dew Point: 41°F , 5°C
Humidity: 63%
Barometer: 30.11 inHg , 1019.6 hPa
Clouds: Clear
Visibility: 10 miles , 16 km
2020/04/02 17:40 KCVH 021740Z AUTO 33007KT 10SM CLR 12/05 A3011 RMK A01
KSNS - Salinas, California, USA
Distance from station: SSE 48mi, 77km
Updated: Thu, 02-Apr-2020 9:53am PDT
Clear
Clear
 Wind from NW
Wind: NW 10 mph , 17 km/h
Temperature: 55°F , 13°C
Dew Point: 37°F , 3°C
Humidity: 51%
Barometer: 30.08 inHg , 1018.6 hPa
Clouds: Clear
Visibility: 10 miles , 16 km
2020/04/02 16:53 KSNS 021653Z 31009KT 10SM CLR 13/03 A3008 RMK AO2 SLP196 T01280028
 
KMRY - Monterey, California, USA
Distance from station: SSE 49mi, 78km
Updated: Thu, 02-Apr-2020 9:54am PDT
Clear
Clear
 Wind from N
Wind: N 6 mph , 9 km/h
Temperature: 57°F , 14°C
Dew Point: 39°F , 4°C
Humidity: 51%
Barometer: 30.10 inHg , 1019.3 hPa
Clouds: Clear
Visibility: 10 miles , 16 km
2020/04/02 16:54 KMRY 021654Z 01005KT 10SM CLR 14/04 A3010 RMK AO2 SLP203 T01440039
KCCR - Concord, California, USA
Distance from station: N 50mi, 81km
Updated: Thu, 02-Apr-2020 9:53am PDT
Clear
Clear
 Wind from calm
Wind: Calm
Temperature: 55°F , 13°C
Dew Point: 36°F , 2°C
Humidity: 47%
Barometer: 30.10 inHg , 1019.3 hPa
Clouds: Clear
Visibility: 10 miles , 16 km
2020/04/02 16:53 KCCR 021653Z 00000KT 10SM CLR 13/02 A3010 RMK AO2 SLP180 T01280017
deformed-offering